createdAt,value
2022-11-09T00:01:03.233Z,8.67
2022-11-09T00:03:30.140Z,8.66
2022-11-09T00:05:58.690Z,8.64
2022-11-09T00:08:25.979Z,8.60
2022-11-09T00:10:53.064Z,8.55
2022-11-09T00:13:20.208Z,8.55
2022-11-09T00:15:47.210Z,8.50
2022-11-09T00:18:13.970Z,8.32
2022-11-09T00:20:46.072Z,8.36
2022-11-09T00:23:15.404Z,8.48
2022-11-09T00:25:42.312Z,8.39
2022-11-09T00:28:09.092Z,8.36
2022-11-09T00:30:35.866Z,8.34
2022-11-09T00:33:02.685Z,8.34
2022-11-09T00:35:29.471Z,8.29
2022-11-09T00:37:56.482Z,8.12
2022-11-09T00:40:23.323Z,8.03
2022-11-09T00:42:50.123Z,8.04
2022-11-09T00:45:17.262Z,8.02
2022-11-09T00:47:44.904Z,8.07
2022-11-09T00:50:11.687Z,8.14
2022-11-09T00:52:38.474Z,8.18
2022-11-09T00:55:05.816Z,8.32
2022-11-09T00:57:32.652Z,8.27
2022-11-09T00:59:59.468Z,8.31
2022-11-09T01:02:26.367Z,8.33
2022-11-09T01:04:53.208Z,8.30
2022-11-09T01:07:20.042Z,8.19
2022-11-09T01:09:46.896Z,8.16
2022-11-09T01:12:13.776Z,8.16
2022-11-09T01:14:40.579Z,8.17
2022-11-09T01:17:07.408Z,8.12
2022-11-09T01:19:34.190Z,8.02
2022-11-09T01:22:00.989Z,7.99
2022-11-09T01:24:27.763Z,7.94
2022-11-09T01:26:54.560Z,7.86
2022-11-09T01:29:21.407Z,7.88
2022-11-09T01:31:48.895Z,7.95
2022-11-09T01:34:17.456Z,7.90
2022-11-09T01:36:44.373Z,7.91
2022-11-09T01:39:11.226Z,8.01
2022-11-09T01:41:38.068Z,8.02
2022-11-09T01:44:18.302Z,8.12
2022-11-09T01:46:51.943Z,8.19
2022-11-09T01:49:40.854Z,8.24
2022-11-09T01:52:22.889Z,8.28
2022-11-09T01:54:56.260Z,8.22
2022-11-09T01:57:29.521Z,8.14
2022-11-09T02:00:09.935Z,8.06
2022-11-09T02:02:39.314Z,8.10
2022-11-09T02:05:11.075Z,8.12
2022-11-09T02:07:38.838Z,8.18
2022-11-09T02:10:25.361Z,8.25
2022-11-09T02:12:54.302Z,8.22
2022-11-09T02:15:21.979Z,8.22
2022-11-09T02:17:53.161Z,8.16
2022-11-09T02:20:20.649Z,8.17
2022-11-09T02:22:47.412Z,8.13
2022-11-09T02:25:15.979Z,8.11
2022-11-09T02:27:43.903Z,8.09
2022-11-09T02:30:12.245Z,8.07
2022-11-09T02:32:39.184Z,8.02
2022-11-09T02:35:06.299Z,7.97
2022-11-09T02:37:42.458Z,7.99
2022-11-09T02:40:21.294Z,7.95
2022-11-09T02:42:48.202Z,7.95
2022-11-09T02:45:15.092Z,7.81
2022-11-09T02:47:41.939Z,7.81
2022-11-09T02:50:09.443Z,7.64
2022-11-09T02:52:36.276Z,7.70
2022-11-09T02:55:03.333Z,7.71
2022-11-09T02:57:30.140Z,7.64
2022-11-09T02:59:56.984Z,7.53
2022-11-09T03:02:23.870Z,7.43
2022-11-09T03:04:50.641Z,7.39
2022-11-09T03:07:17.527Z,7.35
2022-11-09T03:09:46.030Z,7.24
2022-11-09T03:12:30.953Z,7.13
2022-11-09T03:15:04.209Z,7.05
2022-11-09T03:17:32.780Z,6.97
2022-11-09T03:19:59.568Z,6.97
2022-11-09T03:22:26.605Z,6.88
2022-11-09T03:24:53.500Z,6.91
2022-11-09T03:27:20.298Z,6.87
2022-11-09T03:29:47.089Z,6.88
2022-11-09T03:32:13.883Z,6.94
2022-11-09T03:34:40.761Z,6.97
2022-11-09T03:37:07.583Z,6.98
2022-11-09T03:39:34.411Z,6.92
2022-11-09T03:42:01.238Z,6.90
2022-11-09T03:44:28.079Z,6.83
2022-11-09T03:46:54.863Z,6.89
2022-11-09T03:49:23.823Z,6.89
2022-11-09T03:51:52.057Z,6.81
2022-11-09T03:54:18.968Z,6.81
2022-11-09T03:56:46.065Z,6.76
2022-11-09T03:59:12.905Z,6.69
2022-11-09T04:01:39.828Z,6.74
2022-11-09T04:04:06.823Z,6.76
2022-11-09T04:06:33.720Z,6.79
2022-11-09T04:09:00.587Z,6.75
2022-11-09T04:11:27.379Z,6.73
2022-11-09T04:13:54.151Z,6.89
2022-11-09T04:16:21.007Z,6.96
2022-11-09T04:18:48.140Z,7.02
2022-11-09T04:21:15.417Z,7.10
2022-11-09T04:23:43.919Z,7.18
2022-11-09T04:26:10.728Z,7.22
2022-11-09T04:28:37.519Z,7.31
2022-11-09T04:31:04.358Z,7.36
2022-11-09T04:33:31.157Z,7.42
2022-11-09T04:36:05.286Z,7.45
2022-11-09T04:38:32.308Z,7.34
2022-11-09T04:41:04.203Z,7.43
2022-11-09T04:43:31.047Z,7.43
2022-11-09T04:46:03.281Z,7.47
2022-11-09T04:48:31.781Z,7.50
2022-11-09T04:51:12.953Z,7.43
2022-11-09T04:53:40.519Z,7.41
2022-11-09T04:56:08.106Z,7.38
2022-11-09T04:58:35.368Z,7.40
2022-11-09T05:01:08.762Z,7.28
2022-11-09T05:03:35.720Z,7.25
2022-11-09T05:06:22.807Z,7.28
2022-11-09T05:08:49.860Z,7.27
2022-11-09T05:11:16.973Z,7.13
2022-11-09T05:13:43.860Z,7.13
2022-11-09T05:16:10.808Z,7.18
2022-11-09T05:18:37.592Z,7.15
2022-11-09T05:21:04.496Z,7.14
2022-11-09T05:23:50.210Z,7.16
2022-11-09T05:26:17.017Z,7.17
2022-11-09T05:28:43.816Z,7.20
2022-11-09T05:31:10.711Z,7.24
2022-11-09T05:33:37.512Z,7.23
2022-11-09T05:36:04.584Z,7.22
2022-11-09T05:38:31.370Z,7.24
2022-11-09T05:40:58.302Z,7.28
2022-11-09T05:43:25.097Z,7.25
2022-11-09T05:45:51.888Z,7.33
2022-11-09T05:48:18.836Z,7.36
2022-11-09T05:50:46.036Z,7.41
2022-11-09T05:53:13.494Z,7.49
2022-11-09T05:55:40.347Z,7.55
2022-11-09T05:58:07.734Z,7.57
2022-11-09T06:00:35.437Z,7.58
2022-11-09T06:03:08.883Z,7.69
2022-11-09T06:05:38.656Z,7.76
2022-11-09T06:08:09.095Z,7.78
2022-11-09T06:10:36.107Z,7.72
2022-11-09T06:13:03.319Z,7.89
2022-11-09T06:15:30.245Z,8.01
2022-11-09T06:17:58.454Z,8.18
2022-11-09T06:20:27.320Z,8.31
2022-11-09T06:23:02.451Z,8.38
2022-11-09T06:25:32.242Z,8.48
2022-11-09T06:27:59.632Z,8.62
2022-11-09T06:30:26.471Z,8.80
2022-11-09T06:33:02.088Z,8.90
2022-11-09T06:35:29.543Z,8.99
2022-11-09T06:38:01.014Z,9.08
2022-11-09T06:40:28.680Z,9.08
2022-11-09T06:42:59.870Z,9.18
2022-11-09T06:45:28.536Z,9.29
2022-11-09T06:48:00.052Z,9.38
2022-11-09T06:50:30.339Z,9.49
2022-11-09T06:53:07.675Z,9.57
2022-11-09T06:55:35.784Z,9.72
2022-11-09T06:58:20.862Z,10.01
2022-11-09T07:00:47.708Z,10.34
2022-11-09T07:03:16.508Z,10.56
2022-11-09T07:05:44.081Z,10.56
2022-11-09T07:08:11.270Z,10.73
2022-11-09T07:10:38.376Z,10.69
2022-11-09T07:13:06.588Z,10.69
2022-11-09T07:15:34.691Z,10.59
2022-11-09T07:18:03.645Z,10.39
2022-11-09T07:20:30.941Z,10.25
2022-11-09T07:22:58.196Z,10.13
2022-11-09T07:25:27.215Z,10.03
2022-11-09T07:27:54.275Z,9.99
2022-11-09T07:30:21.050Z,9.97
2022-11-09T07:33:08.777Z,10.02
2022-11-09T07:35:34.644Z,10.04
2022-11-09T07:38:02.139Z,9.95
2022-11-09T07:40:29.879Z,10.02
2022-11-09T07:43:01.799Z,10.22
2022-11-09T07:45:30.117Z,10.45
2022-11-09T07:47:59.263Z,10.63
2022-11-09T07:50:27.345Z,10.89
2022-11-09T07:52:56.655Z,11.12
2022-11-09T07:55:24.710Z,11.20
2022-11-09T07:57:59.891Z,11.73
2022-11-09T08:00:29.163Z,12.10
2022-11-09T08:02:56.208Z,12.53
2022-11-09T08:05:23.646Z,12.67
2022-11-09T08:08:00.262Z,13.02
2022-11-09T08:10:29.085Z,13.06
2022-11-09T08:12:58.863Z,13.08
2022-11-09T08:15:26.438Z,13.04
2022-11-09T08:17:53.423Z,13.15
2022-11-09T08:20:21.020Z,13.11
2022-11-09T08:22:48.272Z,13.05
2022-11-09T08:25:16.379Z,13.18
2022-11-09T08:27:43.490Z,13.32
2022-11-09T08:30:17.673Z,13.13
2022-11-09T08:32:45.394Z,13.36
2022-11-09T08:35:17.711Z,13.88
2022-11-09T08:37:50.865Z,14.17
2022-11-09T08:40:23.280Z,14.24
2022-11-09T08:42:50.496Z,14.13
2022-11-09T08:45:18.026Z,13.80
2022-11-09T08:47:45.754Z,13.50
2022-11-09T08:50:15.469Z,13.43
2022-11-09T08:52:42.279Z,13.05
2022-11-09T08:55:09.569Z,12.84
2022-11-09T08:57:36.492Z,12.85
2022-11-09T09:00:05.266Z,12.59
2022-11-09T09:02:32.093Z,12.58
2022-11-09T09:04:59.074Z,12.56
2022-11-09T09:07:26.058Z,12.63
2022-11-09T09:09:52.920Z,12.43
2022-11-09T09:12:19.786Z,12.43
2022-11-09T09:14:46.727Z,12.64
2022-11-09T09:17:13.554Z,12.63
2022-11-09T09:19:40.363Z,12.61
2022-11-09T09:22:07.239Z,12.79
2022-11-09T09:24:35.242Z,12.97
2022-11-09T09:27:02.783Z,13.03
2022-11-09T09:29:29.577Z,12.56
2022-11-09T09:31:56.377Z,12.54
2022-11-09T09:34:23.364Z,12.78
2022-11-09T09:36:53.537Z,12.98
2022-11-09T09:39:20.840Z,13.29
2022-11-09T09:41:53.383Z,13.56
2022-11-09T09:44:29.066Z,13.75
2022-11-09T09:47:15.395Z,13.92
2022-11-09T09:49:55.583Z,14.03
2022-11-09T09:52:54.147Z,14.12
2022-11-09T09:55:39.141Z,14.25
2022-11-09T09:58:31.621Z,14.55
2022-11-09T10:01:21.912Z,14.92
2022-11-09T10:03:49.115Z,15.19
2022-11-09T10:06:40.212Z,15.38
2022-11-09T10:09:36.366Z,14.81
2022-11-09T10:13:04.304Z,15.37
2022-11-09T10:16:14.964Z,15.33
2022-11-09T10:19:26.602Z,15.66
2022-11-09T10:22:31.524Z,16.14
2022-11-09T10:28:13.003Z,16.40
2022-11-09T10:30:40.416Z,15.90
2022-11-09T10:33:18.192Z,16.30
2022-11-09T10:36:21.906Z,16.58
2022-11-09T10:38:51.747Z,16.87
2022-11-09T10:41:48.341Z,16.20
2022-11-09T10:44:18.240Z,16.17
2022-11-09T10:47:11.151Z,16.73
2022-11-09T10:49:39.608Z,17.07
2022-11-09T10:52:31.123Z,17.94
2022-11-09T10:55:25.423Z,18.74
2022-11-09T10:58:01.200Z,18.99
2022-11-09T11:00:28.939Z,19.11
2022-11-09T11:02:56.425Z,20.37
2022-11-09T11:05:27.554Z,21.42
2022-11-09T11:07:54.699Z,22.42
2022-11-09T11:10:22.716Z,23.13
2022-11-09T11:13:22.143Z,23.87
2022-11-09T11:15:49.713Z,23.97
2022-11-09T11:18:24.283Z,23.00
2022-11-09T11:21:26.113Z,21.66
2022-11-09T11:24:17.463Z,22.24
2022-11-09T11:27:09.416Z,23.68
2022-11-09T11:29:48.294Z,23.69
2022-11-09T11:32:18.122Z,23.42
2022-11-09T11:34:59.709Z,23.30
2022-11-09T11:37:51.431Z,22.42
2022-11-09T11:41:23.605Z,23.91
2022-11-09T11:44:02.800Z,24.46
2022-11-09T11:46:47.373Z,24.17
2022-11-09T11:49:52.781Z,23.98
2022-11-09T11:53:25.923Z,23.75
2022-11-09T11:56:17.028Z,22.71
2022-11-09T11:59:23.928Z,21.70
2022-11-09T12:03:14.924Z,22.16
2022-11-09T12:06:28.616Z,21.17
2022-11-09T12:09:27.276Z,20.48
2022-11-09T12:12:20.073Z,20.26
2022-11-09T12:15:21.878Z,20.30
2022-11-09T12:18:19.316Z,19.73
2022-11-09T12:21:03.718Z,19.48
2022-11-09T12:23:37.521Z,19.66
2022-11-09T12:26:38.287Z,19.65
2022-11-09T12:29:18.910Z,19.75
2022-11-09T12:32:21.691Z,19.96
2022-11-09T12:35:03.107Z,20.51
2022-11-09T12:37:37.394Z,21.67
2022-11-09T12:40:23.620Z,22.33
2022-11-09T12:42:58.180Z,23.03
2022-11-09T12:45:40.392Z,23.47
2022-11-09T12:48:29.137Z,24.04
2022-11-09T12:50:58.709Z,24.04
2022-11-09T12:53:37.904Z,23.53
2022-11-09T12:56:24.435Z,22.33
2022-11-09T12:58:51.359Z,21.84
2022-11-09T13:01:27.234Z,21.80
2022-11-09T13:03:57.581Z,21.86
2022-11-09T13:06:26.503Z,21.62
2022-11-09T13:09:16.173Z,21.08
2022-11-09T13:11:49.791Z,20.79
2022-11-09T13:14:22.675Z,20.60
2022-11-09T13:16:55.854Z,20.22
2022-11-09T13:19:34.814Z,20.02
2022-11-09T13:22:22.877Z,19.78
2022-11-09T13:25:00.685Z,19.72
2022-11-09T13:27:33.495Z,19.93
2022-11-09T13:30:02.232Z,19.93
2022-11-09T13:32:33.447Z,19.89
2022-11-09T13:35:03.135Z,19.93
2022-11-09T13:37:41.961Z,20.02
2022-11-09T13:40:33.397Z,20.01
2022-11-09T13:43:09.118Z,19.96
2022-11-09T13:45:51.237Z,19.85
2022-11-09T13:48:44.617Z,19.57
2022-11-09T13:51:20.362Z,19.47
2022-11-09T13:54:26.136Z,19.45
2022-11-09T13:56:53.597Z,19.37
2022-11-09T13:59:35.185Z,19.36
2022-11-09T14:02:03.344Z,19.31
2022-11-09T14:04:39.715Z,19.04
2022-11-09T14:07:32.902Z,18.65
2022-11-09T14:10:46.110Z,18.71
2022-11-09T14:14:13.857Z,18.52
2022-11-09T14:16:51.608Z,18.57
2022-11-09T14:19:52.245Z,18.13
2022-11-09T14:22:20.251Z,18.05
2022-11-09T14:24:47.581Z,18.01
2022-11-09T14:27:21.692Z,17.96
2022-11-09T14:29:59.236Z,17.94
2022-11-09T14:32:35.723Z,17.93
2022-11-09T14:35:28.235Z,17.88
2022-11-09T14:37:57.858Z,17.55
2022-11-09T14:40:28.755Z,17.49
2022-11-09T14:43:16.225Z,17.48
2022-11-09T14:46:00.996Z,17.55
2022-11-09T14:48:29.941Z,17.60
2022-11-09T14:51:00.921Z,17.52
2022-11-09T14:53:36.175Z,17.51
2022-11-09T14:56:06.921Z,17.39
2022-11-09T14:58:38.009Z,17.30
2022-11-09T15:01:19.993Z,17.18
2022-11-09T15:04:17.016Z,17.12
2022-11-09T15:06:51.371Z,17.05
2022-11-09T15:09:26.740Z,16.97
2022-11-09T15:11:54.083Z,16.92
2022-11-09T15:14:34.974Z,16.86
2022-11-09T15:17:07.971Z,16.84
2022-11-09T15:19:47.377Z,16.75
2022-11-09T15:22:54.238Z,16.59
2022-11-09T15:25:29.319Z,16.53
2022-11-09T15:28:24.446Z,16.39
2022-11-09T15:30:54.475Z,16.39
2022-11-09T15:33:29.851Z,16.35
2022-11-09T15:36:17.928Z,16.30
2022-11-09T15:38:56.323Z,16.21
2022-11-09T15:41:25.827Z,16.12
2022-11-09T15:43:52.713Z,16.09
2022-11-09T15:46:27.609Z,15.98
2022-11-09T15:48:59.564Z,15.80
2022-11-09T15:51:26.408Z,15.68
2022-11-09T15:53:53.204Z,15.67
2022-11-09T15:56:23.913Z,15.70
2022-11-09T15:58:52.455Z,15.69
2022-11-09T16:01:19.404Z,15.70
2022-11-09T16:03:46.295Z,15.64
2022-11-09T16:06:22.377Z,15.59
2022-11-09T16:08:50.847Z,15.60
2022-11-09T16:11:17.766Z,15.55
2022-11-09T16:13:44.728Z,15.52
2022-11-09T16:16:13.975Z,15.52
2022-11-09T16:18:40.817Z,15.52
2022-11-09T16:21:15.210Z,15.46
2022-11-09T16:23:42.084Z,15.47
2022-11-09T16:26:13.545Z,15.42
2022-11-09T16:28:41.348Z,15.43
2022-11-09T16:31:08.166Z,15.41
2022-11-09T16:33:36.021Z,15.42
2022-11-09T16:36:22.162Z,15.47
2022-11-09T16:38:54.248Z,15.47
2022-11-09T16:41:21.945Z,15.32
2022-11-09T16:43:53.511Z,15.35
2022-11-09T16:46:27.312Z,15.27
2022-11-09T16:48:54.850Z,15.25
2022-11-09T16:51:22.235Z,15.17
2022-11-09T16:53:49.028Z,15.12
2022-11-09T16:56:17.008Z,15.12
2022-11-09T16:58:43.826Z,15.04
2022-11-09T17:01:12.698Z,15.05
2022-11-09T17:03:41.000Z,15.07
2022-11-09T17:06:11.032Z,15.08
2022-11-09T17:08:39.951Z,15.05
2022-11-09T17:11:12.276Z,15.01
2022-11-09T17:13:39.463Z,15.01
2022-11-09T17:16:10.170Z,15.02
2022-11-09T17:18:37.899Z,14.99
2022-11-09T17:21:11.010Z,14.96
2022-11-09T17:23:38.440Z,14.93
2022-11-09T17:26:07.660Z,14.88
2022-11-09T17:28:40.036Z,14.85
2022-11-09T17:31:19.778Z,14.83
2022-11-09T17:33:46.612Z,14.74
2022-11-09T17:36:29.707Z,14.76
2022-11-09T17:39:05.578Z,14.61
2022-11-09T17:41:32.428Z,14.68
2022-11-09T17:44:01.771Z,14.65
2022-11-09T17:46:28.601Z,14.68
2022-11-09T17:48:55.439Z,14.70
2022-11-09T17:51:22.519Z,14.71
2022-11-09T17:53:49.301Z,14.70
2022-11-09T17:56:16.071Z,14.69
2022-11-09T17:58:45.489Z,14.70
2022-11-09T18:01:16.492Z,14.74
2022-11-09T18:03:43.638Z,14.69
2022-11-09T18:06:22.643Z,14.71
2022-11-09T18:09:09.539Z,14.70
2022-11-09T18:11:37.259Z,14.72
2022-11-09T18:14:04.418Z,14.68
2022-11-09T18:16:31.307Z,14.63
2022-11-09T18:19:03.061Z,14.65
2022-11-09T18:21:30.320Z,14.60
2022-11-09T18:23:57.223Z,14.60
2022-11-09T18:26:24.082Z,14.58
2022-11-09T18:28:51.199Z,14.51
2022-11-09T18:31:18.023Z,14.51
2022-11-09T18:33:44.924Z,14.49
2022-11-09T18:36:15.673Z,14.52
2022-11-09T18:38:44.385Z,14.52
2022-11-09T18:41:17.750Z,14.44
2022-11-09T18:43:45.227Z,14.46
2022-11-09T18:46:15.615Z,14.46
2022-11-09T18:48:43.290Z,14.37
2022-11-09T18:51:11.419Z,14.44
2022-11-09T18:53:44.336Z,14.40
2022-11-09T18:56:24.554Z,14.38
2022-11-09T18:58:54.978Z,14.31
2022-11-09T19:01:27.384Z,14.33
2022-11-09T19:03:58.977Z,14.29
2022-11-09T19:06:26.870Z,14.35
2022-11-09T19:09:11.925Z,14.35
2022-11-09T19:11:39.004Z,14.39
2022-11-09T19:14:05.844Z,14.37
2022-11-09T19:16:32.724Z,14.44
2022-11-09T19:18:59.500Z,14.43
2022-11-09T19:21:35.847Z,14.38
2022-11-09T19:24:03.313Z,14.36
2022-11-09T19:26:30.207Z,14.35
2022-11-09T19:28:57.011Z,14.35
2022-11-09T19:31:25.108Z,14.30
2022-11-09T19:33:52.453Z,14.32
2022-11-09T19:36:30.301Z,14.31
2022-11-09T19:38:58.319Z,14.35
2022-11-09T19:41:25.772Z,14.35
2022-11-09T19:43:55.811Z,14.35
2022-11-09T19:46:22.983Z,14.37
2022-11-09T19:48:50.072Z,14.42
2022-11-09T19:51:18.214Z,14.44
2022-11-09T19:53:53.668Z,14.47
2022-11-09T19:56:22.397Z,14.42
2022-11-09T19:58:56.167Z,14.42
2022-11-09T20:01:23.929Z,14.45
2022-11-09T20:03:54.029Z,14.41
2022-11-09T20:06:24.277Z,14.40
2022-11-09T20:08:53.729Z,14.42
2022-11-09T20:11:42.967Z,14.39
2022-11-09T20:14:11.251Z,14.36
2022-11-09T20:16:39.600Z,14.36
2022-11-09T20:19:09.565Z,14.37
2022-11-09T20:21:37.693Z,14.40
2022-11-09T20:24:06.349Z,14.37
2022-11-09T20:26:33.485Z,14.39
2022-11-09T20:29:00.331Z,14.41
2022-11-09T20:31:27.164Z,14.40
2022-11-09T20:33:55.867Z,14.38
2022-11-09T20:36:22.695Z,14.38
2022-11-09T20:38:49.483Z,14.40
2022-11-09T20:41:16.336Z,14.40
2022-11-09T20:43:44.146Z,14.39
2022-11-09T20:46:20.628Z,14.40
2022-11-09T20:48:54.023Z,14.44
2022-11-09T20:51:22.873Z,14.40
2022-11-09T20:53:50.639Z,14.35
2022-11-09T20:56:19.012Z,14.46
2022-11-09T20:58:46.645Z,14.41
2022-11-09T21:01:25.036Z,14.32
2022-11-09T21:03:52.958Z,14.38
2022-11-09T21:06:22.359Z,14.39
2022-11-09T21:08:53.047Z,14.37
2022-11-09T21:11:23.605Z,14.34
2022-11-09T21:13:55.556Z,14.39
2022-11-09T21:16:23.865Z,14.37
2022-11-09T21:18:50.809Z,14.29
2022-11-09T21:21:21.729Z,14.32
2022-11-09T21:24:07.619Z,14.29
2022-11-09T21:26:53.861Z,14.30
2022-11-09T21:29:43.187Z,14.34
2022-11-09T21:32:12.028Z,14.18
2022-11-09T21:34:39.260Z,14.32
2022-11-09T21:37:06.477Z,14.35
2022-11-09T21:39:33.717Z,14.33
2022-11-09T21:42:02.387Z,14.31
2022-11-09T21:44:33.320Z,14.32
2022-11-09T21:47:01.717Z,14.34
2022-11-09T21:49:28.610Z,14.31
2022-11-09T21:51:55.476Z,14.32
2022-11-09T21:54:23.005Z,14.33
2022-11-09T21:56:51.144Z,14.36
2022-11-09T21:59:18.401Z,14.39
2022-11-09T22:01:45.655Z,14.39
2022-11-09T22:04:13.060Z,14.40
2022-11-09T22:06:41.916Z,14.42
2022-11-09T22:09:15.287Z,14.46
2022-11-09T22:12:01.161Z,14.49
2022-11-09T22:14:46.604Z,14.48
2022-11-09T22:17:13.729Z,14.45
2022-11-09T22:19:59.509Z,14.49
2022-11-09T22:22:30.853Z,14.43
2022-11-09T22:24:57.794Z,14.47
2022-11-09T22:27:24.731Z,14.46
2022-11-09T22:29:51.564Z,14.43
2022-11-09T22:32:18.399Z,14.48
2022-11-09T22:34:45.219Z,14.46
2022-11-09T22:37:12.375Z,14.45
2022-11-09T22:39:44.389Z,14.42
2022-11-09T22:42:13.701Z,14.44
2022-11-09T22:44:40.511Z,14.52
2022-11-09T22:47:07.341Z,14.41
2022-11-09T22:49:36.538Z,14.45
2022-11-09T22:52:04.824Z,14.45
2022-11-09T22:54:31.628Z,14.46
2022-11-09T22:56:58.459Z,14.35
2022-11-09T22:59:25.377Z,14.38
2022-11-09T23:01:52.215Z,14.43
2022-11-09T23:04:19.031Z,14.46
2022-11-09T23:06:45.894Z,14.49
2022-11-09T23:09:12.911Z,14.35
2022-11-09T23:11:39.727Z,14.48
2022-11-09T23:14:06.595Z,14.44
2022-11-09T23:16:33.380Z,14.47
2022-11-09T23:19:00.174Z,14.48
2022-11-09T23:21:28.055Z,14.54
2022-11-09T23:24:05.582Z,14.38
2022-11-09T23:26:33.752Z,14.49
2022-11-09T23:29:00.695Z,14.44
2022-11-09T23:31:27.633Z,14.39
2022-11-09T23:33:57.031Z,14.34
2022-11-09T23:36:26.432Z,14.44
2022-11-09T23:38:53.548Z,14.39
2022-11-09T23:41:21.194Z,14.19
2022-11-09T23:43:49.960Z,14.13
2022-11-09T23:46:17.773Z,14.29
2022-11-09T23:48:45.019Z,14.30
2022-11-09T23:51:12.369Z,14.19
2022-11-09T23:53:39.433Z,14.27
2022-11-09T23:56:11.871Z,14.22
2022-11-09T23:58:39.199Z,14.23
